Time;durP1;ratioP1;P1;durP2;ratioP2;P2;SDS_P1;SDS_P2;PMS_P1;PMS_P2;Temp;Humidity;BMP_temperature;BMP_pressure;BME280_temperature;BME280_humidity;BME280_pressure;Samples;Min_cycle;Max_cycle;Signal;HPM_P1;HPM_P2
2023/10/17 00:00:38;;;;;;;9.93;5.53;;;12.80;99.90;;;;;;6210234;22;20164;-78
2023/10/17 00:03:05;;;;;;;14.48;6.50;;;12.80;99.90;;;;;;6257596;22;20226;-79
2023/10/17 00:05:31;;;;;;;6.95;4.95;;;12.90;99.90;;;;;;6258030;22;20026;-78
2023/10/17 00:07:58;;;;;;;6.80;4.70;;;12.80;99.90;;;;;;6282991;22;20020;-78
2023/10/17 00:10:26;;;;;;;6.60;4.90;;;12.90;99.90;;;;;;6257734;22;20015;-78
2023/10/17 00:12:53;;;;;;;6.53;5.20;;;12.80;99.90;;;;;;6232733;22;20015;-78
2023/10/17 00:15:28;;;;;;;9.32;5.50;;;12.80;99.90;;;;;;6256769;22;20016;-78
2023/10/17 00:18:15;;;;;;;8.20;5.47;;;12.90;99.90;;;;;;6258937;22;20011;-78
2023/10/17 00:20:43;;;;;;;7.55;5.30;;;12.90;99.90;;;;;;6261523;22;20104;-77
2023/10/17 00:23:14;;;;;;;6.97;5.53;;;12.90;99.90;;;;;;6232554;22;20019;-77
2023/10/17 00:25:42;;;;;;;6.63;5.60;;;13.00;99.90;;;;;;6258470;22;20015;-80
2023/10/17 00:28:10;;;;;;;9.02;6.10;;;13.00;99.90;;;;;;6232061;22;20012;-81
2023/10/17 00:30:38;;;;;;;6.82;4.53;;;13.10;99.90;;;;;;6232672;22;20285;-78
2023/10/17 00:33:09;;;;;;;5.47;4.15;;;12.70;99.90;;;;;;6283208;22;20341;-78
2023/10/17 00:35:39;;;;;;;6.28;4.70;;;12.70;99.90;;;;;;6234837;22;20089;-79
2023/10/17 00:38:08;;;;;;;7.35;4.57;;;12.60;99.90;;;;;;6282908;22;20011;-77
2023/10/17 00:40:51;;;;;;;10.25;6.07;;;12.60;99.90;;;;;;6232561;22;20011;-79
2023/10/17 00:43:17;;;;;;;7.05;5.65;;;12.70;99.90;;;;;;6283014;22;20016;-79
2023/10/17 00:45:45;;;;;;;7.18;5.53;;;12.80;99.90;;;;;;6257636;22;20011;-77
2023/10/17 00:48:17;;;;;;;11.13;7.30;;;12.90;99.90;;;;;;6257182;22;20519;-77
2023/10/17 00:50:46;;;;;;;7.45;5.85;;;12.90;99.90;;;;;;6257501;22;20014;-79
2023/10/17 00:53:12;;;;;;;8.45;5.85;;;13.00;99.90;;;;;;6257022;22;20202;-78
2023/10/17 00:55:38;;;;;;;8.13;6.03;;;13.00;99.90;;;;;;6282877;22;20066;-78
2023/10/17 00:58:06;;;;;;;8.00;5.72;;;13.00;99.90;;;;;;6282934;22;20054;-76
2023/10/17 01:00:41;;;;;;;8.18;5.90;;;13.00;99.90;;;;;;6283001;22;20031;-79
2023/10/17 01:03:13;;;;;;;9.13;5.00;;;13.10;99.90;;;;;;6258730;22;20071;-80
2023/10/17 01:08:51;;;;;;;5.45;4.10;;;12.70;99.90;;;;;;6214429;22;20019;-78
2023/10/17 01:11:21;;;;;;;5.25;3.78;;;12.60;99.90;;;;;;6282722;22;20012;-77
2023/10/17 01:13:54;;;;;;;3.75;3.45;;;12.30;99.90;;;;;;6283026;22;20011;-79
2023/10/17 01:16:20;;;;;;;4.38;3.97;;;12.40;99.90;;;;;;6282882;22;20018;-77
2023/10/17 01:18:47;;;;;;;5.78;4.15;;;12.40;99.90;;;;;;6257066;22;20014;-76
2023/10/17 01:21:21;;;;;;;5.32;4.15;;;12.40;99.90;;;;;;6231957;22;20045;-75
2023/10/17 01:23:55;;;;;;;6.38;4.75;;;12.40;99.90;;;;;;6282474;22;20047;-76
2023/10/17 01:26:23;;;;;;;5.30;4.32;;;12.60;99.90;;;;;;6256626;22;20431;-77
2023/10/17 01:28:51;;;;;;;6.07;4.40;;;12.60;99.90;;;;;;6256714;22;20179;-76
2023/10/17 01:31:24;;;;;;;6.70;4.25;;;12.60;99.90;;;;;;6281957;22;20290;-77
2023/10/17 01:33:52;;;;;;;5.53;4.93;;;12.60;99.90;;;;;;6282379;22;20007;-78
2023/10/17 01:36:19;;;;;;;6.78;5.47;;;12.50;99.90;;;;;;6281635;22;20194;-76
2023/10/17 01:38:46;;;;;;;6.55;5.35;;;12.50;99.90;;;;;;6257643;22;20015;-78
2023/10/17 01:41:12;;;;;;;6.45;4.82;;;12.50;99.90;;;;;;6258696;22;20011;-77
2023/10/17 01:43:45;;;;;;;7.60;5.30;;;12.60;99.90;;;;;;6283630;22;20084;-77
2023/10/17 01:46:15;;;;;;;7.22;4.68;;;12.60;99.90;;;;;;6233600;22;20363;-77
2023/10/17 01:48:47;;;;;;;6.57;4.47;;;12.60;99.90;;;;;;6283782;22;20042;-79
2023/10/17 01:51:14;;;;;;;7.38;4.40;;;12.70;99.90;;;;;;6258244;22;20066;-76
2023/10/17 01:53:40;;;;;;;5.30;3.88;;;12.90;99.90;;;;;;6283465;22;20293;-77
2023/10/17 01:56:16;;;;;;;6.10;4.10;;;12.90;99.90;;;;;;6284281;22;20014;-77
2023/10/17 01:58:50;;;;;;;6.95;4.13;;;13.10;99.90;;;;;;6284319;22;20011;-78
2023/10/17 02:01:31;;;;;;;6.97;4.45;;;13.10;99.90;;;;;;6258909;22;20205;-78
2023/10/17 02:04:03;;;;;;;8.55;4.45;;;13.10;99.90;;;;;;6284232;22;20304;-78
2023/10/17 02:06:33;;;;;;;6.18;4.22;;;13.10;99.90;;;;;;6283762;22;20023;-76
2023/10/17 02:09:00;;;;;;;5.45;4.10;;;13.10;99.90;;;;;;6258958;22;20201;-78
2023/10/17 02:11:26;;;;;;;6.13;4.25;;;13.10;99.90;;;;;;6258944;22;20071;-78
2023/10/17 02:13:57;;;;;;;4.68;3.53;;;13.00;99.90;;;;;;6233358;22;20062;-76
2023/10/17 02:16:32;;;;;;;6.55;4.07;;;12.90;99.90;;;;;;6234055;22;20007;-78
2023/10/17 02:19:06;;;;;;;7.80;4.38;;;13.00;99.90;;;;;;6258580;22;20008;-79
2023/10/17 02:21:32;;;;;;;6.53;4.57;;;12.90;99.90;;;;;;6284090;22;20015;-77
2023/10/17 02:24:01;;;;;;;8.32;5.70;;;12.90;99.90;;;;;;6258424;22;20007;-78
2023/10/17 02:26:29;;;;;;;5.85;4.60;;;12.80;99.90;;;;;;6283883;22;20008;-78
2023/10/17 02:28:59;;;;;;;8.35;5.45;;;12.90;99.90;;;;;;6233508;22;20035;-77
2023/10/17 02:31:32;;;;;;;6.75;5.28;;;12.80;99.90;;;;;;6259231;22;20035;-79
2023/10/17 02:33:59;;;;;;;9.98;5.15;;;12.80;99.90;;;;;;6258221;22;20008;-78
2023/10/17 02:36:26;;;;;;;6.75;5.28;;;12.70;99.90;;;;;;6258437;22;20004;-77
2023/10/17 02:38:52;;;;;;;6.22;4.80;;;12.60;99.90;;;;;;6233188;22;20337;-78
2023/10/17 02:41:19;;;;;;;5.75;4.57;;;12.50;99.90;;;;;;6233060;22;20281;-79
2023/10/17 02:43:46;;;;;;;7.03;5.53;;;12.30;99.90;;;;;;6233841;22;20078;-79
2023/10/17 02:46:14;;;;;;;7.28;5.10;;;12.40;99.90;;;;;;6258831;22;20061;-78
2023/10/17 02:48:42;;;;;;;8.18;4.80;;;12.30;99.90;;;;;;6233402;22;20011;-79
2023/10/17 02:53:50;;;;;;;5.93;4.97;;;12.30;99.90;;;;;;6284780;22;20012;-79
2023/10/17 02:56:19;;;;;;;7.57;4.88;;;12.30;99.90;;;;;;6234598;22;20007;-81
2023/10/17 02:59:04;;;;;;;7.30;5.50;;;12.30;99.90;;;;;;6284223;22;20064;-79
2023/10/17 03:01:42;;;;;;;8.55;5.13;;;12.40;99.90;;;;;;6284073;22;20113;-80
2023/10/17 03:04:11;;;;;;;9.73;5.35;;;12.40;99.90;;;;;;6258543;22;20051;-76
2023/10/17 03:06:42;;;;;;;8.43;5.38;;;12.30;99.90;;;;;;6257610;22;20019;-77
2023/10/17 03:09:16;;;;;;;9.30;5.30;;;12.40;99.90;;;;;;6258127;22;20016;-76
2023/10/17 03:12:29;;;;;;;10.00;6.23;;;12.30;99.90;;;;;;6283563;22;20050;-75
2023/10/17 03:17:02;;;;;;;10.63;6.45;;;12.40;99.90;;;;;;6283713;22;20023;-76
2023/10/17 03:19:28;;;;;;;11.07;6.22;;;12.30;99.90;;;;;;6232698;22;20242;-78
2023/10/17 03:21:55;;;;;;;10.00;6.15;;;12.30;99.90;;;;;;6283757;22;20194;-78
2023/10/17 03:24:38;;;;;;;9.75;7.00;;;12.30;99.90;;;;;;6257758;22;20039;-76
2023/10/17 03:27:08;;;;;;;8.35;5.75;;;12.50;99.90;;;;;;6239758;22;20019;-77
2023/10/17 03:29:41;;;;;;;10.38;5.50;;;12.50;99.90;;;;;;6233240;22;20035;-77
2023/10/17 03:32:11;;;;;;;9.93;4.90;;;12.60;99.90;;;;;;6260174;22;20031;-80
2023/10/17 03:34:37;;;;;;;5.90;4.57;;;12.70;99.90;;;;;;6283828;22;20012;-78
2023/10/17 03:40:15;;;;;;;5.25;4.10;;;12.60;99.90;;;;;;6245206;22;20102;-76
2023/10/17 03:42:46;;;;;;;6.60;3.80;;;12.60;99.90;;;;;;6283534;22;20020;-77
2023/10/17 03:45:17;;;;;;;6.72;4.43;;;12.80;99.90;;;;;;6283137;22;20019;-77
2023/10/17 03:47:47;;;;;;;11.50;4.05;;;12.90;99.90;;;;;;6233191;22;20607;-77
2023/10/17 03:50:31;;;;;;;8.65;4.03;;;12.90;99.90;;;;;;6283183;22;20433;-79
2023/10/17 03:53:04;;;;;;;6.60;3.67;;;12.90;99.90;;;;;;6257809;22;20016;-80
2023/10/17 03:55:31;;;;;;;6.93;3.58;;;12.70;99.90;;;;;;6233602;22;20007;-79
2023/10/17 03:57:59;;;;;;;3.75;3.15;;;12.60;99.90;;;;;;6283036;22;20043;-77
2023/10/17 04:00:39;;;;;;;4.35;3.80;;;12.20;99.90;;;;;;6232286;22;20240;-81
2023/10/17 04:03:13;;;;;;;4.93;4.05;;;11.80;99.90;;;;;;6283298;22;20026;-77
2023/10/17 04:05:40;;;;;;;6.82;4.72;;;11.90;99.90;;;;;;6257388;22;20027;-77
2023/10/17 04:08:09;;;;;;;5.25;4.47;;;11.90;99.90;;;;;;6207723;22;20358;-79
2023/10/17 04:10:53;;;;;;;6.80;4.75;;;12.00;99.90;;;;;;6232872;22;20174;-76
2023/10/17 04:13:34;;;;;;;10.33;5.97;;;12.10;99.90;;;;;;6257970;22;20008;-78
2023/10/17 04:16:08;;;;;;;7.25;5.45;;;12.10;99.90;;;;;;6260647;22;20007;-78
2023/10/17 04:18:37;;;;;;;7.23;5.50;;;12.10;99.90;;;;;;6210480;22;20321;-77
2023/10/17 04:21:27;;;;;;;9.30;6.07;;;12.10;99.90;;;;;;6283264;22;20073;-79
2023/10/17 04:23:55;;;;;;;8.73;6.60;;;12.00;99.90;;;;;;6215418;22;20131;-78
2023/10/17 04:26:27;;;;;;;7.10;6.28;;;12.00;99.90;;;;;;6282876;22;20011;-79
2023/10/17 04:29:10;;;;;;;9.90;6.70;;;12.20;99.90;;;;;;6257311;22;20011;-78
2023/10/17 04:31:37;;;;;;;10.90;7.45;;;12.10;99.90;;;;;;6234393;22;20087;-77
2023/10/17 04:34:14;;;;;;;8.70;6.40;;;12.20;99.90;;;;;;6232167;22;20012;-78
2023/10/17 04:36:41;;;;;;;10.05;6.60;;;12.20;99.90;;;;;;6259972;22;20202;-78
2023/10/17 04:45:13;;;;;;;10.43;6.70;;;12.20;99.90;;;;;;6282899;22;20067;-77
2023/10/17 04:49:50;;;;;;;9.90;6.90;;;12.30;99.90;;;;;;6282510;22;20020;-75
2023/10/17 04:52:19;;;;;;;7.40;6.35;;;12.10;99.90;;;;;;6283045;22;20016;-76
2023/10/17 04:54:47;;;;;;;9.15;6.50;;;12.30;99.90;;;;;;6258183;22;20008;-78
2023/10/17 04:57:16;;;;;;;9.73;6.70;;;12.10;99.90;;;;;;6257962;22;20065;-77
2023/10/17 06:18:32;;;;;;;10.07;6.68;;;13.30;99.90;;;;;;6288147;22;20065;-78
2023/10/17 06:34:35;;;;;;;9.57;6.00;;;13.30;99.90;;;;;;6287334;22;20043;-78
2023/10/17 06:37:01;;;;;;;7.30;5.07;;;13.50;99.90;;;;;;6236107;22;20248;-78
2023/10/17 06:39:36;;;;;;;8.65;5.07;;;13.50;99.90;;;;;;6261515;22;20019;-80
2023/10/17 06:42:15;;;;;;;7.63;5.10;;;13.50;99.90;;;;;;6288063;22;20048;-79
2023/10/17 06:44:53;;;;;;;8.93;4.90;;;13.50;99.90;;;;;;6262504;22;20011;-78
2023/10/17 06:47:41;;;;;;;9.88;6.10;;;13.50;99.90;;;;;;6265070;22;20107;-80
2023/10/17 06:58:14;;;;;;;8.40;6.63;;;13.50;99.90;;;;;;6287699;22;20070;-77
2023/10/17 07:00:43;;;;;;;7.63;6.28;;;13.40;99.90;;;;;;6240382;22;20059;-80
2023/10/17 07:03:13;;;;;;;8.13;7.30;;;13.60;99.90;;;;;;6262172;22;20274;-79
2023/10/17 07:05:39;;;;;;;9.57;6.80;;;13.70;99.90;;;;;;6263028;22;20058;-77
2023/10/17 07:08:14;;;;;;;8.75;6.15;;;13.60;99.90;;;;;;6262785;22;20072;-78
2023/10/17 07:10:40;;;;;;;;;;;13.80;99.90;;;;;;6239845;22;20007;-79
2023/10/17 07:13:49;;;;;;;10.57;6.55;;;13.70;99.90;;;;;;6284599;22;20104;-79
2023/10/17 07:16:16;;;;;;;9.13;5.82;;;13.90;99.90;;;;;;6261297;22;20408;-79
2023/10/17 07:18:51;;;;;;;9.25;5.90;;;13.80;99.90;;;;;;6286838;22;20011;-79
2023/10/17 07:21:22;;;;;;;;;;;14.00;99.90;;;;;;6287530;22;20071;-81
2023/10/17 07:23:48;;;;;;;8.23;5.45;;;13.90;99.90;;;;;;6260955;22;20129;-79
2023/10/17 07:26:24;;;;;;;9.20;5.70;;;13.90;99.90;;;;;;6261270;22;20105;-79
2023/10/17 07:28:50;;;;;;;8.63;5.75;;;14.20;99.90;;;;;;6263217;22;20019;-80
2023/10/17 07:31:22;;;;;;;8.07;5.60;;;14.10;99.90;;;;;;6261360;22;20022;-79
2023/10/17 07:34:33;;;;;;;7.60;5.47;;;14.10;99.90;;;;;;6287012;22;20368;-81
2023/10/17 07:36:38;;;;;;;8.15;5.40;;;14.20;99.90;;;;;;6274253;22;20011;-78
2023/10/17 07:39:15;;;;;;;5.88;4.68;;;14.30;99.90;;;;;;6261655;22;20272;-81
2023/10/17 07:41:44;;;;;;;6.65;5.80;;;14.30;99.90;;;;;;6287212;22;20007;-80
2023/10/17 07:44:19;;;;;;;6.05;4.68;;;14.50;99.90;;;;;;6286873;22;20300;-78
2023/10/17 07:49:38;;;;;;;7.32;5.22;;;14.50;99.90;;;;;;6265086;22;20011;-81
2023/10/17 07:52:12;;;;;;;9.15;5.75;;;14.40;99.90;;;;;;6286705;22;20014;-80
2023/10/17 07:55:17;;;;;;;5.63;4.53;;;14.60;99.90;;;;;;6261359;22;20097;-81
2023/10/17 07:57:44;;;;;;;9.07;4.85;;;14.70;99.90;;;;;;6287023;22;20011;-80
2023/10/17 08:03:20;;;;;;;7.65;4.93;;;14.70;99.90;;;;;;6235540;22;20030;-79
2023/10/17 08:06:08;;;;;;;7.03;5.50;;;14.80;99.90;;;;;;6260500;22;20131;-80
2023/10/17 08:08:33;;;;;;;8.70;5.10;;;14.90;99.90;;;;;;6285913;22;20015;-78
2023/10/17 08:11:05;;;;;;;10.45;5.25;;;14.90;99.90;;;;;;6260648;22;20007;-81
2023/10/17 08:13:32;;;;;;;6.85;4.88;;;15.00;99.90;;;;;;6261539;22;20015;-80
2023/10/17 08:16:17;;;;;;;9.27;5.47;;;15.00;99.90;;;;;;6286892;22;20011;-80
2023/10/17 08:18:43;;;;;;;8.50;5.60;;;15.20;99.90;;;;;;6262504;22;20301;-79
2023/10/17 08:23:46;;;;;;;;;;;15.30;99.90;;;;;;6240230;22;20037;-80
2023/10/17 08:26:16;;;;;;;8.05;5.50;;;15.40;99.90;;;;;;6261053;22;19921;-80
2023/10/17 08:34:09;;;;;;;11.00;5.40;;;15.90;99.90;;;;;;6243284;22;20011;-77
2023/10/17 08:36:48;;;;;;;10.88;4.88;;;15.90;99.90;;;;;;6263045;22;20058;-78
2023/10/17 08:42:14;;;;;;;5.80;4.72;;;15.90;99.90;;;;;;6262910;22;20042;-78
2023/10/17 08:44:42;;;;;;;6.68;4.80;;;16.10;99.90;;;;;;6260406;22;20057;-79
2023/10/17 08:47:16;;;;;;;7.00;4.30;;;16.20;99.90;;;;;;6285497;22;20306;-78
2023/10/17 08:49:44;;;;;;;4.57;3.92;;;16.30;99.90;;;;;;6261055;22;20294;-78
2023/10/17 08:52:22;;;;;;;4.65;3.70;;;16.30;99.90;;;;;;6260537;22;20301;-80
2023/10/17 08:54:49;;;;;;;4.82;2.80;;;16.40;99.90;;;;;;6261005;22;20007;-77
2023/10/17 08:57:14;;;;;;;4.97;2.92;;;16.50;99.90;;;;;;6260811;22;20070;-80
2023/10/17 09:02:17;;;;;;;4.68;2.72;;;16.50;99.90;;;;;;6285664;22;20078;-78
2023/10/17 09:04:43;;;;;;;6.38;2.97;;;16.50;99.90;;;;;;6262176;22;20015;-78
2023/10/17 09:07:18;;;;;;;5.25;3.50;;;16.60;99.90;;;;;;6285947;22;20579;-79
2023/10/17 09:09:47;;;;;;;6.70;3.30;;;16.70;99.90;;;;;;6260316;22;20050;-80
2023/10/17 09:12:21;;;;;;;6.05;3.20;;;16.90;99.90;;;;;;6285861;22;20015;-76
2023/10/17 09:14:52;;;;;;;5.25;3.00;;;16.70;99.90;;;;;;6262351;22;20007;-77
2023/10/17 09:17:28;;;;;;;4.95;2.70;;;16.70;99.90;;;;;;6286246;22;20033;-81
2023/10/17 09:19:56;;;;;;;13.32;3.38;;;16.80;99.90;;;;;;6260447;22;20305;-78
2023/10/17 09:22:23;;;;;;;4.43;2.05;;;16.90;99.90;;;;;;6260897;22;20019;-78
2023/10/17 09:24:49;;;;;;;3.40;2.00;;;16.90;99.90;;;;;;6286397;22;20011;-77
2023/10/17 09:27:17;;;;;;;7.20;2.67;;;16.90;99.90;;;;;;6286084;22;20011;-78
2023/10/17 09:29:50;;;;;;;6.32;2.60;;;17.10;99.90;;;;;;6286057;22;20320;-77
2023/10/17 09:32:37;;;;;;;6.78;2.75;;;17.10;99.90;;;;;;6285852;22;20198;-79
2023/10/17 09:35:10;;;;;;;3.90;2.33;;;17.40;99.90;;;;;;6260335;22;20032;-77
2023/10/17 09:37:41;;;;;;;2.33;1.95;;;17.50;99.90;;;;;;6262456;22;20328;-80
2023/10/17 09:40:12;;;;;;;3.88;1.77;;;17.60;99.90;;;;;;6286146;22;20018;-79
2023/10/17 09:42:44;;;;;;;1.35;1.25;;;17.60;99.90;;;;;;6260788;22;20011;-77
2023/10/17 09:45:14;;;;;;;3.38;1.75;;;17.50;99.90;;;;;;6236129;22;20012;-79
2023/10/17 09:47:46;;;;;;;3.13;1.55;;;17.40;99.90;;;;;;6260343;22;20018;-78
2023/10/17 09:50:21;;;;;;;2.65;1.90;;;17.30;99.90;;;;;;6285961;22;20240;-78
2023/10/17 09:52:51;;;;;;;3.08;1.70;;;17.50;99.90;;;;;;6286139;22;20015;-77
2023/10/17 09:55:23;;;;;;;5.13;2.15;;;17.60;99.90;;;;;;6285911;22;20022;-78
2023/10/17 09:57:56;;;;;;;3.10;1.65;;;17.60;99.90;;;;;;6260560;22;20007;-76
2023/10/17 10:00:27;;;;;;;5.70;1.90;;;17.60;99.90;;;;;;6288167;22;20254;-78
2023/10/17 10:02:54;;;;;;;6.10;2.20;;;17.60;99.90;;;;;;6287402;22;20027;-78
2023/10/17 10:05:28;;;;;;;4.20;2.20;;;17.70;99.90;;;;;;6288043;22;20201;-80
2023/10/17 10:07:55;;;;;;;2.55;1.80;;;17.90;99.90;;;;;;6237473;22;20079;-80
2023/10/17 10:10:56;;;;;;;2.90;1.70;;;18.00;99.90;;;;;;6287722;22;20013;-79
2023/10/17 10:13:24;;;;;;;7.70;2.45;;;17.90;99.90;;;;;;6135892;23;20056;-78
2023/10/17 10:16:04;;;;;;;4.63;2.00;;;18.00;99.90;;;;;;6234347;22;20007;-79
2023/10/17 10:18:35;;;;;;;2.72;1.27;;;18.20;99.90;;;;;;6237725;22;20011;-79
2023/10/17 10:21:02;;;;;;;4.03;1.83;;;18.20;99.90;;;;;;6287427;22;20019;-78
2023/10/17 10:23:37;;;;;;;3.13;1.98;;;18.40;99.90;;;;;;6287833;22;20011;-77
2023/10/17 10:26:11;;;;;;;2.65;1.50;;;18.20;99.90;;;;;;6286824;22;20038;-77
2023/10/17 10:28:51;;;;;;;3.60;1.60;;;18.20;99.90;;;;;;6287574;22;20070;-76
2023/10/17 10:31:24;;;;;;;3.50;1.73;;;18.20;99.90;;;;;;6287513;22;20019;-79
2023/10/17 10:34:11;;;;;;;3.40;1.70;;;18.30;99.90;;;;;;6262096;22;20007;-80
2023/10/17 10:36:43;;;;;;;4.32;1.70;;;18.30;99.90;;;;;;6263057;22;20168;-78
2023/10/17 10:39:13;;;;;;;4.40;2.35;;;18.40;99.90;;;;;;6261683;22;20007;-76
2023/10/17 10:41:58;;;;;;;6.90;2.30;;;18.10;99.90;;;;;;6262288;22;20076;-77
2023/10/17 10:44:26;;;;;;;5.00;1.70;;;18.10;99.90;;;;;;6287566;22;20246;-79
2023/10/17 10:46:53;;;;;;;3.90;1.52;;;18.10;99.90;;;;;;6236675;22;20074;-77
2023/10/17 10:49:28;;;;;;;3.15;1.50;;;18.20;99.90;;;;;;6236671;22;20019;-80
2023/10/17 10:51:58;;;;;;;3.55;1.30;;;18.10;99.90;;;;;;6236706;22;20052;-79
2023/10/17 10:54:50;;;;;;;4.25;1.70;;;18.00;99.90;;;;;;6262238;22;20190;-76
2023/10/17 10:57:27;;;;;;;6.68;1.50;;;17.90;99.90;;;;;;6218110;22;20244;-77
2023/10/17 10:59:55;;;;;;;4.78;1.77;;;17.90;99.90;;;;;;6287524;22;20039;-76
2023/10/17 11:02:21;;;;;;;5.63;1.90;;;17.90;99.90;;;;;;6258144;22;20051;-79
2023/10/17 11:04:47;;;;;;;3.58;1.30;;;18.00;99.90;;;;;;6261640;22;20202;-76
2023/10/17 11:07:20;;;;;;;3.25;1.27;;;17.90;99.90;;;;;;6261500;22;20019;-76
2023/10/17 11:10:17;;;;;;;5.32;1.30;;;17.80;99.90;;;;;;6287688;22;20238;-78
2023/10/17 11:12:53;;;;;;;3.47;1.40;;;17.80;99.90;;;;;;6287015;22;20007;-77
2023/10/17 11:15:22;;;;;;;3.10;1.20;;;17.90;99.90;;;;;;6261460;22;20341;-78
2023/10/17 11:17:47;;;;;;;2.13;1.15;;;17.90;99.90;;;;;;6261618;22;20232;-78
2023/10/17 11:20:19;;;;;;;2.53;1.30;;;17.80;99.90;;;;;;6287239;22;20056;-77
2023/10/17 11:22:46;;;;;;;2.90;1.20;;;17.70;99.90;;;;;;6261781;22;20015;-76
2023/10/17 11:25:47;;;;;;;4.05;1.70;;;17.80;99.90;;;;;;6287427;22;20011;-76
2023/10/17 11:28:07;;;;;;;1.30;1.10;;;17.90;99.90;;;;;;6282799;22;20022;-78
2023/10/17 11:30:42;;;;;;;2.33;1.35;;;17.80;99.90;;;;;;6287252;22;20062;-78
2023/10/17 11:33:14;;;;;;;4.28;1.83;;;17.70;99.90;;;;;;6261858;22;20103;-77
2023/10/17 11:35:49;;;;;;;3.70;1.50;;;17.70;99.90;;;;;;6287587;22;20015;-77
2023/10/17 11:38:46;;;;;;;1.35;1.08;;;17.80;99.90;;;;;;6236307;22;20039;-78
2023/10/17 11:41:15;;;;;;;2.35;1.30;;;17.70;99.90;;;;;;6287400;22;20018;-78
2023/10/17 11:43:54;;;;;;;1.95;1.13;;;17.90;99.90;;;;;;6286997;22;20011;-78
2023/10/17 11:46:33;;;;;;;3.55;1.40;;;17.90;99.90;;;;;;6238292;22;20070;-79
2023/10/17 11:49:21;;;;;;;3.15;1.33;;;18.00;99.90;;;;;;6235730;22;20037;-76
2023/10/17 11:52:00;;;;;;;5.70;1.50;;;17.80;99.90;;;;;;6287057;22;20166;-77
2023/10/17 11:54:27;;;;;;;5.35;2.00;;;17.70;99.90;;;;;;6261421;22;20014;-78
2023/10/17 11:56:54;;;;;;;3.15;1.60;;;17.80;99.90;;;;;;6313494;22;20076;-78
2023/10/17 11:59:20;;;;;;;5.50;1.95;;;17.80;99.90;;;;;;6261061;22;20026;-77
2023/10/17 12:01:53;;;;;;;1.92;1.20;;;17.90;99.90;;;;;;6236518;22;20320;-77
2023/10/17 12:04:19;;;;;;;2.83;1.98;;;18.00;99.90;;;;;;6281153;22;20015;-78
2023/10/17 12:06:48;;;;;;;2.60;1.48;;;17.90;99.90;;;;;;6256078;22;20051;-79
2023/10/17 12:09:17;;;;;;;2.78;1.60;;;18.10;99.90;;;;;;6281473;22;20004;-79
2023/10/17 12:11:51;;;;;;;3.28;1.60;;;18.00;99.90;;;;;;6282587;22;20015;-78
2023/10/17 12:14:20;;;;;;;6.30;1.60;;;18.10;99.90;;;;;;6281718;22;20023;-77
2023/10/17 12:16:54;;;;;;;3.65;1.67;;;18.00;99.90;;;;;;6282110;22;20223;-77
2023/10/17 12:19:20;;;;;;;2.67;1.85;;;17.90;99.90;;;;;;6281327;22;20014;-78
2023/10/17 12:21:50;;;;;;;3.88;1.73;;;17.90;99.90;;;;;;6256146;22;20014;-79
2023/10/17 12:24:28;;;;;;;4.25;1.88;;;17.90;99.90;;;;;;6231277;22;20011;-79
2023/10/17 12:26:55;;;;;;;2.97;1.70;;;17.90;99.90;;;;;;6256631;22;20415;-78
2023/10/17 12:29:25;;;;;;;3.03;1.60;;;18.00;99.90;;;;;;6255893;22;20171;-78
2023/10/17 12:31:57;;;;;;;2.38;1.80;;;18.00;99.90;;;;;;6231886;22;20008;-79
2023/10/17 12:34:23;;;;;;;3.58;2.10;;;18.00;99.90;;;;;;6255681;22;20008;-78
2023/10/17 12:36:49;;;;;;;4.22;3.15;;;17.90;99.90;;;;;;6230821;22;20015;-80
2023/10/17 12:39:16;;;;;;;3.08;1.95;;;17.90;99.90;;;;;;6255776;22;20011;-77
2023/10/17 12:41:45;;;;;;;3.03;1.80;;;18.00;99.90;;;;;;6230690;22;20042;-79
2023/10/17 12:44:18;;;;;;;5.75;2.60;;;17.90;99.90;;;;;;6230240;22;20008;-79
2023/10/17 12:46:44;;;;;;;4.18;1.95;;;17.90;99.90;;;;;;6255901;22;20063;-79
2023/10/17 12:49:14;;;;;;;3.92;2.03;;;17.80;99.90;;;;;;6280964;22;20294;-79
2023/10/17 12:51:41;;;;;;;3.25;1.80;;;17.90;99.90;;;;;;6231813;22;20007;-78
2023/10/17 12:54:08;;;;;;;3.90;1.65;;;17.90;99.90;;;;;;6255783;22;20310;-77
2023/10/17 12:56:36;;;;;;;3.25;2.45;;;17.90;99.90;;;;;;6281298;22;20007;-77
2023/10/17 12:59:12;;;;;;;1.67;1.58;;;17.90;99.90;;;;;;6281067;22;20039;-76
2023/10/17 13:01:41;;;;;;;3.05;1.73;;;17.90;99.90;;;;;;6280857;22;20067;-80
2023/10/17 13:04:09;;;;;;;2.97;1.65;;;17.90;99.90;;;;;;6256171;22;20027;-78
2023/10/17 13:06:37;;;;;;;3.42;1.70;;;17.90;99.90;;;;;;6255615;22;20016;-79
2023/10/17 13:09:04;;;;;;;5.15;1.50;;;18.00;99.90;;;;;;6256070;22;20020;-79
2023/10/17 13:11:30;;;;;;;2.75;1.83;;;17.90;99.90;;;;;;6280841;22;20015;-77
2023/10/17 13:13:57;;;;;;;5.35;2.00;;;17.80;99.90;;;;;;6255623;22;20302;-78
2023/10/17 13:16:26;;;;;;;2.67;1.50;;;17.90;99.90;;;;;;6255701;22;20014;-78
2023/10/17 13:18:56;;;;;;;4.45;1.80;;;17.90;99.90;;;;;;6281071;22;20016;-78
2023/10/17 13:21:22;;;;;;;6.00;2.00;;;17.90;99.90;;;;;;6230605;22;20011;-77
2023/10/17 13:23:48;;;;;;;2.30;1.80;;;17.90;99.90;;;;;;6255242;22;20019;-77
2023/10/17 13:26:19;;;;;;;4.53;1.67;;;17.80;99.90;;;;;;6256440;22;20011;-77
2023/10/17 13:28:45;;;;;;;2.90;1.60;;;17.90;99.90;;;;;;6255474;22;20018;-77
2023/10/17 13:31:12;;;;;;;2.42;1.45;;;17.80;99.90;;;;;;6255559;22;20155;-78
2023/10/17 13:33:39;;;;;;;2.17;1.13;;;17.90;99.90;;;;;;6230556;22;20015;-77
2023/10/17 13:36:11;;;;;;;6.22;1.48;;;17.90;99.90;;;;;;6282970;22;20044;-76
2023/10/17 13:38:40;;;;;;;2.35;1.20;;;17.90;99.90;;;;;;6257648;22;20054;-78
2023/10/17 13:41:09;;;;;;;3.47;1.48;;;17.90;99.90;;;;;;6257417;22;20049;-76
2023/10/17 13:43:38;;;;;;;3.33;1.20;;;17.90;99.90;;;;;;6281960;22;20020;-79
2023/10/17 13:46:08;;;;;;;3.22;1.40;;;17.90;99.90;;;;;;6255110;22;20061;-78
2023/10/17 13:48:36;;;;;;;2.65;1.30;;;17.80;99.90;;;;;;6257182;22;20019;-80
2023/10/17 13:51:06;;;;;;;3.80;1.50;;;17.80;99.90;;;;;;6283819;22;20007;-78
2023/10/17 13:53:36;;;;;;;3.08;1.20;;;17.70;99.90;;;;;;6208313;22;20007;-76
2023/10/17 13:56:15;;;;;;;3.42;1.10;;;17.70;99.90;;;;;;6258308;22;20004;-79
2023/10/17 13:58:41;;;;;;;1.80;1.17;;;17.80;99.90;;;;;;6258988;22;20012;-78
2023/10/17 14:01:27;;;;;;;3.78;1.00;;;17.70;99.90;;;;;;6284015;22;20039;-80
2023/10/17 14:03:55;;;;;;;2.50;1.23;;;17.70;99.90;;;;;;6287321;22;20274;-76
2023/10/17 14:06:22;;;;;;;4.65;1.35;;;17.70;99.90;;;;;;6237587;22;20053;-76
2023/10/17 14:08:47;;;;;;;2.50;1.40;;;17.60;99.90;;;;;;6263427;22;20041;-76
2023/10/17 14:11:19;;;;;;;2.55;1.30;;;17.70;99.90;;;;;;6288961;22;20011;-79
2023/10/17 14:13:51;;;;;;;3.72;1.30;;;17.70;99.90;;;;;;6288904;22;20320;-77
2023/10/17 14:16:17;;;;;;;1.77;1.20;;;17.70;99.90;;;;;;6262734;22;20220;-77
2023/10/17 14:21:37;;;;;;;2.57;1.10;;;17.70;99.90;;;;;;6266529;22;20015;-77
2023/10/17 14:24:07;;;;;;;2.00;0.90;;;17.70;99.90;;;;;;6264851;22;20027;-77
2023/10/17 14:26:33;;;;;;;2.70;1.30;;;17.60;99.90;;;;;;6264018;22;20017;-77
2023/10/17 14:29:03;;;;;;;2.95;1.23;;;17.60;99.90;;;;;;6263153;22;20012;-79
2023/10/17 14:31:32;;;;;;;2.13;1.10;;;17.70;99.90;;;;;;6288225;22;20035;-76
2023/10/17 14:33:59;;;;;;;2.15;1.00;;;17.60;99.90;;;;;;6262916;22;20014;-78
2023/10/17 14:36:26;;;;;;;3.83;1.20;;;17.60;99.90;;;;;;6287877;22;20007;-80
2023/10/17 14:38:53;;;;;;;2.33;0.95;;;17.60;99.90;;;;;;6288475;22;20019;-77
2023/10/17 14:41:19;;;;;;;2.10;1.23;;;17.60;99.90;;;;;;6262560;22;20054;-79
2023/10/17 14:43:49;;;;;;;3.15;1.08;;;17.50;99.90;;;;;;6288233;22;20011;-79
2023/10/17 14:46:16;;;;;;;2.35;1.27;;;17.50;99.90;;;;;;6288163;22;20066;-74
2023/10/17 14:48:44;;;;;;;2.47;1.40;;;17.50;99.90;;;;;;6288303;22;20042;-76
2023/10/17 14:51:12;;;;;;;1.75;1.25;;;17.40;99.90;;;;;;6288444;22;20035;-82
2023/10/17 14:53:42;;;;;;;6.15;1.63;;;17.50;99.90;;;;;;6262510;22;20013;-80
2023/10/17 14:56:12;;;;;;;3.65;1.17;;;17.40;99.90;;;;;;6237784;22;20007;-78
2023/10/17 14:58:49;;;;;;;1.67;0.88;;;17.40;99.90;;;;;;6237472;22;20011;-77
2023/10/17 15:01:15;;;;;;;2.35;1.20;;;17.30;99.90;;;;;;6262833;22;20056;-78
2023/10/17 15:03:41;;;;;;;2.00;1.00;;;17.30;99.90;;;;;;6261371;22;20023;-78
2023/10/17 15:06:09;;;;;;;3.92;1.10;;;17.30;99.90;;;;;;6257735;22;20031;-78
2023/10/17 15:08:35;;;;;;;2.22;1.02;;;17.20;99.90;;;;;;6257358;22;20012;-78
2023/10/17 15:11:05;;;;;;;2.88;1.20;;;17.20;99.90;;;;;;6257107;22;20290;-77
2023/10/17 15:13:33;;;;;;;1.67;1.10;;;17.20;99.90;;;;;;6282907;22;20007;-78
2023/10/17 15:16:02;;;;;;;5.57;1.20;;;17.20;99.90;;;;;;6258048;22;20035;-78
2023/10/17 15:18:29;;;;;;;1.85;1.10;;;17.20;99.90;;;;;;6231883;22;20277;-81
2023/10/17 15:21:09;;;;;;;4.20;1.10;;;17.10;99.90;;;;;;6257368;22;20019;-75
2023/10/17 15:23:42;;;;;;;5.05;1.10;;;17.10;99.90;;;;;;6257200;22;20011;-79
2023/10/17 15:26:10;;;;;;;2.30;1.15;;;17.00;99.90;;;;;;6256947;22;20019;-77
2023/10/17 15:28:37;;;;;;;2.63;1.33;;;17.00;99.90;;;;;;6282260;22;20019;-77
2023/10/17 15:31:09;;;;;;;2.67;1.17;;;16.90;99.90;;;;;;6257137;22;20042;-76